sensor_id;sensor_type;location;lat;lon;timestamp;pressure;altitude;pressure_sealevel;temperature;humidity
29197;BME280;62796;42.654;23.316;2022-09-03T00:02:19;94545.09;;;18.76;71.01
29197;BME280;62796;42.654;23.316;2022-09-03T00:05:08;94551.28;;;18.77;71.03
29197;BME280;62796;42.654;23.316;2022-09-03T00:07:56;94544.16;;;18.72;71.14
29197;BME280;62796;42.654;23.316;2022-09-03T00:10:33;94540.53;;;18.77;71.08
29197;BME280;62796;42.654;23.316;2022-09-03T00:13:03;94553.16;;;18.76;70.68
29197;BME280;62796;42.654;23.316;2022-09-03T00:15:32;94540.69;;;18.72;70.89
29197;BME280;62796;42.654;23.316;2022-09-03T00:18:08;94542.88;;;18.78;70.77
29197;BME280;62796;42.654;23.316;2022-09-03T00:20:50;94541.00;;;18.79;70.27
29197;BME280;62796;42.654;23.316;2022-09-03T00:23:27;94545.75;;;18.82;70.48
29197;BME280;62796;42.654;23.316;2022-09-03T00:26:04;94543.56;;;18.84;70.49
29197;BME280;62796;42.654;23.316;2022-09-03T00:28:36;94536.44;;;18.88;70.59
29197;BME280;62796;42.654;23.316;2022-09-03T00:31:18;94531.22;;;18.92;70.28
29197;BME280;62796;42.654;23.316;2022-09-03T00:33:57;94528.22;;;18.93;70.26
29197;BME280;62796;42.654;23.316;2022-09-03T00:36:30;94529.78;;;18.94;70.15
29197;BME280;62796;42.654;23.316;2022-09-03T00:38:58;94531.38;;;18.95;70.51
29197;BME280;62796;42.654;23.316;2022-09-03T00:46:50;94526.00;;;19.04;70.43
29197;BME280;62796;42.654;23.316;2022-09-03T00:52:17;94538.97;;;19.11;70.12
29197;BME280;62796;42.654;23.316;2022-09-03T00:57:29;94544.66;;;19.09;70.11
29197;BME280;62796;42.654;23.316;2022-09-03T01:00:12;94542.91;;;19.13;70.08
29197;BME280;62796;42.654;23.316;2022-09-03T01:03:11;94535.00;;;19.17;69.87
29197;BME280;62796;42.654;23.316;2022-09-03T01:12:03;94529.78;;;19.12;69.38
29197;BME280;62796;42.654;23.316;2022-09-03T01:18:00;94532.31;;;19.00;70.07
29197;BME280;62796;42.654;23.316;2022-09-03T01:25:51;94543.41;;;18.89;69.98
29197;BME280;62796;42.654;23.316;2022-09-03T01:42:28;94564.47;;;18.38;70.08
29197;BME280;62796;42.654;23.316;2022-09-03T02:01:23;94550.84;;;18.17;71.66
29197;BME280;62796;42.654;23.316;2022-09-03T02:03:50;94542.47;;;18.19;71.47
29197;BME280;62796;42.654;23.316;2022-09-03T02:06:18;94548.50;;;18.25;71.42
29197;BME280;62796;42.654;23.316;2022-09-03T02:08:45;94549.28;;;18.34;71.22
29197;BME280;62796;42.654;23.316;2022-09-03T02:11:11;94548.69;;;18.37;71.22
29197;BME280;62796;42.654;23.316;2022-09-03T02:13:49;94549.31;;;18.43;70.77
29197;BME280;62796;42.654;23.316;2022-09-03T02:16:22;94566.56;;;18.42;70.53
29197;BME280;62796;42.654;23.316;2022-09-03T02:19:05;94558.94;;;18.35;70.40
29197;BME280;62796;42.654;23.316;2022-09-03T02:21:37;94556.41;;;18.30;70.60
29197;BME280;62796;42.654;23.316;2022-09-03T02:24:04;94556.09;;;18.31;70.85
29197;BME280;62796;42.654;23.316;2022-09-03T02:26:30;94555.47;;;18.34;71.05
29197;BME280;62796;42.654;23.316;2022-09-03T02:28:56;94561.50;;;18.40;71.08
29197;BME280;62796;42.654;23.316;2022-09-03T02:31:22;94573.19;;;18.44;70.74
29197;BME280;62796;42.654;23.316;2022-09-03T02:33:50;94563.38;;;18.48;70.73
29197;BME280;62796;42.654;23.316;2022-09-03T02:36:19;94564.81;;;18.46;70.75
29197;BME280;62796;42.654;23.316;2022-09-03T02:38:46;94572.41;;;18.52;70.68
29197;BME280;62796;42.654;23.316;2022-09-03T02:41:12;94567.38;;;18.59;70.80
29197;BME280;62796;42.654;23.316;2022-09-03T02:43:49;94560.56;;;18.53;70.62
29197;BME280;62796;42.654;23.316;2022-09-03T02:46:21;94565.00;;;18.58;70.00
29197;BME280;62796;42.654;23.316;2022-09-03T02:48:47;94571.63;;;18.60;70.49
29197;BME280;62796;42.654;23.316;2022-09-03T02:51:12;94567.69;;;18.58;70.26
29197;BME280;62796;42.654;23.316;2022-09-03T02:53:38;94577.31;;;18.59;70.43
29197;BME280;62796;42.654;23.316;2022-09-03T02:56:03;94572.28;;;18.57;70.25
29197;BME280;62796;42.654;23.316;2022-09-03T02:58:29;94580.50;;;18.61;70.17
29197;BME280;62796;42.654;23.316;2022-09-03T03:00:58;94576.66;;;18.53;69.92
29197;BME280;62796;42.654;23.316;2022-09-03T03:03:23;94577.16;;;18.55;70.39
29197;BME280;62796;42.654;23.316;2022-09-03T03:05:51;94575.09;;;18.52;70.43
29197;BME280;62796;42.654;23.316;2022-09-03T03:08:19;94566.06;;;18.48;70.27
29197;BME280;62796;42.654;23.316;2022-09-03T03:10:48;94574.63;;;18.50;70.40
29197;BME280;62796;42.654;23.316;2022-09-03T03:13:16;94579.34;;;18.53;70.23
29197;BME280;62796;42.654;23.316;2022-09-03T03:15:42;94571.00;;;18.55;70.10
29197;BME280;62796;42.654;23.316;2022-09-03T03:18:09;94570.69;;;18.56;69.81
29197;BME280;62796;42.654;23.316;2022-09-03T03:20:37;94567.84;;;18.53;70.02
29197;BME280;62796;42.654;23.316;2022-09-03T03:23:03;94568.75;;;18.48;70.04
29197;BME280;62796;42.654;23.316;2022-09-03T03:25:34;94558.00;;;18.48;70.12
29197;BME280;62796;42.654;23.316;2022-09-03T03:27:59;94562.47;;;18.53;69.85
29197;BME280;62796;42.654;23.316;2022-09-03T03:30:26;94565.31;;;18.56;69.96
29197;BME280;62796;42.654;23.316;2022-09-03T03:32:55;94571.00;;;18.55;70.10
29197;BME280;62796;42.654;23.316;2022-09-03T03:35:20;94572.09;;;18.45;70.04
29197;BME280;62796;42.654;23.316;2022-09-03T03:37:46;94580.94;;;18.46;69.93
29197;BME280;62796;42.654;23.316;2022-09-03T03:40:12;94577.63;;;18.49;70.40
29197;BME280;62796;42.654;23.316;2022-09-03T03:42:37;94575.56;;;18.54;70.05
29197;BME280;62796;42.654;23.316;2022-09-03T03:45:04;94579.06;;;18.55;70.19
29197;BME280;62796;42.654;23.316;2022-09-03T03:47:30;94583.50;;;18.59;70.23
29197;BME280;62796;42.654;23.316;2022-09-03T03:49:57;94548.38;;;18.47;70.04
29197;BME280;62796;42.654;23.316;2022-09-03T03:52:23;94566.09;;;18.57;69.96
29197;BME280;62796;42.654;23.316;2022-09-03T03:54:49;94567.38;;;18.59;69.64
29197;BME280;62796;42.654;23.316;2022-09-03T03:57:15;94578.44;;;18.67;69.83
29197;BME280;62796;42.654;23.316;2022-09-03T03:59:41;94585.72;;;18.66;69.65
29197;BME280;62796;42.654;23.316;2022-09-03T04:02:06;94583.34;;;18.65;69.37
29197;BME280;62796;42.654;23.316;2022-09-03T04:04:32;94583.03;;;18.57;69.84
29197;BME280;62796;42.654;23.316;2022-09-03T04:06:57;94579.06;;;18.55;69.69
29197;BME280;62796;42.654;23.316;2022-09-03T04:09:22;94576.53;;;18.58;69.70
29197;BME280;62796;42.654;23.316;2022-09-03T04:11:48;94558.97;;;18.44;69.61
29197;BME280;62796;42.654;23.316;2022-09-03T04:14:15;94576.22;;;18.60;69.69
29197;BME280;62796;42.654;23.316;2022-09-03T04:16:42;94571.16;;;18.58;69.50
29197;BME280;62796;42.654;23.316;2022-09-03T04:19:07;94564.06;;;18.54;69.95
29197;BME280;62796;42.654;23.316;2022-09-03T04:21:33;94573.38;;;18.56;69.73
29197;BME280;62796;42.654;23.316;2022-09-03T04:23:58;94575.75;;;18.58;70.03
29197;BME280;62796;42.654;23.316;2022-09-03T04:26:28;94582.69;;;18.59;70.00
29197;BME280;62796;42.654;23.316;2022-09-03T04:29:04;94577.31;;;18.59;69.73
29197;BME280;62796;42.654;23.316;2022-09-03T04:31:31;94586.81;;;18.65;69.67
29197;BME280;62796;42.654;23.316;2022-09-03T04:33:57;94593.31;;;18.73;69.68
29197;BME280;62796;42.654;23.316;2022-09-03T04:36:25;94598.06;;;18.76;69.57
29197;BME280;62796;42.654;23.316;2022-09-03T04:38:52;94601.69;;;18.80;69.63
29197;BME280;62796;42.654;23.316;2022-09-03T04:41:25;94601.41;;;18.82;69.72
29197;BME280;62796;42.654;23.316;2022-09-03T04:43:53;94615.00;;;18.85;69.38
29197;BME280;62796;42.654;23.316;2022-09-03T04:46:20;94602.81;;;18.79;69.07
29197;BME280;62796;42.654;23.316;2022-09-03T04:48:47;94623.06;;;18.85;68.93
29197;BME280;62796;42.654;23.316;2022-09-03T04:51:17;94622.59;;;18.83;69.26
29197;BME280;62796;42.654;23.316;2022-09-03T04:53:45;94617.19;;;18.74;69.45
29197;BME280;62796;42.654;23.316;2022-09-03T04:56:17;94625.88;;;18.71;68.90
29197;BME280;62796;42.654;23.316;2022-09-03T04:58:43;94636.13;;;18.60;69.19
29197;BME280;62796;42.654;23.316;2022-09-03T05:01:17;94621.22;;;18.46;69.26
29197;BME280;62796;42.654;23.316;2022-09-03T05:03:44;94631.34;;;18.49;69.37
29197;BME280;62796;42.654;23.316;2022-09-03T05:06:09;94627.81;;;18.39;69.57
29197;BME280;62796;42.654;23.316;2022-09-03T05:08:35;94637.66;;;18.44;69.45
29197;BME280;62796;42.654;23.316;2022-09-03T05:11:04;94635.56;;;18.41;69.55
29197;BME280;62796;42.654;23.316;2022-09-03T05:13:31;94639.88;;;18.42;69.67
29197;BME280;62796;42.654;23.316;2022-09-03T05:16:03;94639.06;;;18.42;69.75
29197;BME280;62796;42.654;23.316;2022-09-03T05:18:29;94632.41;;;18.39;69.90
29197;BME280;62796;42.654;23.316;2022-09-03T05:20:59;94634.78;;;18.40;70.18
29197;BME280;62796;42.654;23.316;2022-09-03T05:23:26;94631.81;;;18.42;70.14
29197;BME280;62796;42.654;23.316;2022-09-03T05:25:59;94622.63;;;18.34;70.05
29197;BME280;62796;42.654;23.316;2022-09-03T05:28:26;94626.25;;;18.38;70.29
29197;BME280;62796;42.654;23.316;2022-09-03T05:31:06;94632.75;;;18.46;70.17
29197;BME280;62796;42.654;23.316;2022-09-03T05:33:34;94621.84;;;18.43;69.93
29197;BME280;62796;42.654;23.316;2022-09-03T05:36:02;94627.81;;;18.39;69.97
29197;BME280;62796;42.654;23.316;2022-09-03T05:38:27;94631.63;;;18.38;69.99
29197;BME280;62796;42.654;23.316;2022-09-03T05:40:53;94638.59;;;18.48;70.01
29197;BME280;62796;42.654;23.316;2022-09-03T05:43:18;94644.16;;;18.52;69.99
29197;BME280;62796;42.654;23.316;2022-09-03T05:45:45;94644.16;;;18.52;69.66
29197;BME280;62796;42.654;23.316;2022-09-03T05:48:10;94647.00;;;18.55;69.75
29197;BME280;62796;42.654;23.316;2022-09-03T05:50:36;94644.28;;;18.47;69.37
29197;BME280;62796;42.654;23.316;2022-09-03T05:53:01;94649.03;;;18.50;68.91
29197;BME280;62796;42.654;23.316;2022-09-03T05:55:26;94650.34;;;18.52;69.57
29197;BME280;62796;42.654;23.316;2022-09-03T05:57:53;94652.84;;;18.49;68.79
29197;BME280;62796;42.654;23.316;2022-09-03T06:00:19;94646.34;;;18.50;69.21
29197;BME280;62796;42.654;23.316;2022-09-03T06:02:53;94635.91;;;18.48;68.83
29197;BME280;62796;42.654;23.316;2022-09-03T06:05:19;94654.75;;;18.57;68.93
29197;BME280;62796;42.654;23.316;2022-09-03T06:07:45;94654.31;;;18.64;68.40
29197;BME280;62796;42.654;23.316;2022-09-03T06:10:14;94648.94;;;18.64;68.07
29197;BME280;62796;42.654;23.316;2022-09-03T06:12:41;94668.56;;;18.73;67.53
29197;BME280;62796;42.654;23.316;2022-09-03T06:15:07;94671.72;;;18.75;67.52
29197;BME280;62796;42.654;23.316;2022-09-03T06:17:33;94660.97;;;18.75;67.76
29197;BME280;62796;42.654;23.316;2022-09-03T06:19:58;94658.13;;;18.80;67.55
29197;BME280;62796;42.654;23.316;2022-09-03T06:22:24;94661.50;;;18.94;67.37
29197;BME280;62796;42.654;23.316;2022-09-03T06:24:52;94656.97;;;19.04;67.38
29197;BME280;62796;42.654;23.316;2022-09-03T06:27:18;94653.16;;;19.13;66.86
29197;BME280;62796;42.654;23.316;2022-09-03T06:29:45;94664.88;;;19.26;66.12
29197;BME280;62796;42.654;23.316;2022-09-03T06:32:10;94667.56;;;19.35;66.10
29197;BME280;62796;42.654;23.316;2022-09-03T06:34:36;94679.13;;;19.35;65.74
29197;BME280;62796;42.654;23.316;2022-09-03T06:37:01;94666.47;;;19.27;65.54
29197;BME280;62796;42.654;23.316;2022-09-03T06:39:27;94669.94;;;19.28;65.37
29197;BME280;62796;42.654;23.316;2022-09-03T06:41:52;94679.75;;;19.32;65.36
29197;BME280;62796;42.654;23.316;2022-09-03T06:44:19;94671.06;;;19.35;65.84
29197;BME280;62796;42.654;23.316;2022-09-03T06:46:44;94680.53;;;19.42;65.37
29197;BME280;62796;42.654;23.316;2022-09-03T06:49:11;94674.38;;;19.50;65.14
29197;BME280;62796;42.654;23.316;2022-09-03T06:51:37;94674.84;;;19.61;65.17
29197;BME280;62796;42.654;23.316;2022-09-03T06:54:07;94676.59;;;19.74;65.11
29197;BME280;62796;42.654;23.316;2022-09-03T06:56:34;94673.13;;;19.82;64.63
29197;BME280;62796;42.654;23.316;2022-09-03T06:59:06;94672.00;;;19.92;64.38
29197;BME280;62796;42.654;23.316;2022-09-03T07:01:33;94672.78;;;19.92;64.02
29197;BME280;62796;42.654;23.316;2022-09-03T07:04:00;94681.00;;;19.96;63.63
29197;BME280;62796;42.654;23.316;2022-09-03T07:06:29;94684.66;;;20.00;63.54
29197;BME280;62796;42.654;23.316;2022-09-03T07:08:54;94683.53;;;20.10;63.43
29197;BME280;62796;42.654;23.316;2022-09-03T07:11:23;94677.97;;;20.15;63.14
29197;BME280;62796;42.654;23.316;2022-09-03T07:13:50;94682.84;;;20.22;62.54
29197;BME280;62796;42.654;23.316;2022-09-03T07:16:19;94677.00;;;20.20;62.54
29197;BME280;62796;42.654;23.316;2022-09-03T07:18:46;94691.47;;;20.45;62.46
29197;BME280;62796;42.654;23.316;2022-09-03T07:21:14;94680.31;;;20.73;62.11
29197;BME280;62796;42.654;23.316;2022-09-03T07:23:41;94690.00;;;21.24;61.12
29197;BME280;62796;42.654;23.316;2022-09-03T07:26:10;94678.53;;;21.57;59.53
29197;BME280;62796;42.654;23.316;2022-09-03T07:28:38;94690.84;;;22.00;58.80
29197;BME280;62796;42.654;23.316;2022-09-03T07:31:21;94703.69;;;22.37;57.64
29197;BME280;62796;42.654;23.316;2022-09-03T07:33:53;94700.69;;;22.51;56.79
29197;BME280;62796;42.654;23.316;2022-09-03T07:36:20;94707.09;;;22.59;56.61
29197;BME280;62796;42.654;23.316;2022-09-03T07:38:46;94702.72;;;22.66;55.96
29197;BME280;62796;42.654;23.316;2022-09-03T07:41:13;94703.84;;;22.78;56.17
29197;BME280;62796;42.654;23.316;2022-09-03T07:43:41;94709.94;;;22.87;56.19
29197;BME280;62796;42.654;23.316;2022-09-03T07:46:16;94705.78;;;22.77;56.17
29197;BME280;62796;42.654;23.316;2022-09-03T07:48:51;94712.41;;;22.80;55.37
29197;BME280;62796;42.654;23.316;2022-09-03T07:51:18;94702.97;;;22.73;55.74
29197;BME280;62796;42.654;23.316;2022-09-03T07:53:45;94705.91;;;22.81;55.39
29197;BME280;62796;42.654;23.316;2022-09-03T07:56:12;94710.94;;;22.82;55.64
29197;BME280;62796;42.654;23.316;2022-09-03T07:58:38;94717.94;;;22.83;55.83
29197;BME280;62796;42.654;23.316;2022-09-03T08:01:11;94721.75;;;22.82;56.01
29197;BME280;62796;42.654;23.316;2022-09-03T08:03:38;94706.69;;;22.81;55.23
29197;BME280;62796;42.654;23.316;2022-09-03T08:06:06;94720.31;;;22.97;55.05
29197;BME280;62796;42.654;23.316;2022-09-03T08:08:32;94718.88;;;23.12;55.39
29197;BME280;62796;42.654;23.316;2022-09-03T08:11:15;94717.50;;;23.30;54.35
29197;BME280;62796;42.654;23.316;2022-09-03T08:13:43;94714.06;;;23.46;53.56
29197;BME280;62796;42.654;23.316;2022-09-03T08:16:11;94716.53;;;23.63;53.20
29197;BME280;62796;42.654;23.316;2022-09-03T08:18:38;94712.09;;;23.83;53.08
29197;BME280;62796;42.654;23.316;2022-09-03T08:21:09;94720.81;;;24.05;52.61
29197;BME280;62796;42.654;23.316;2022-09-03T08:23:40;94715.44;;;24.21;52.73
29197;BME280;62796;42.654;23.316;2022-09-03T08:26:07;94717.56;;;24.28;52.53
29197;BME280;62796;42.654;23.316;2022-09-03T08:28:33;94711.91;;;24.20;52.58
29197;BME280;62796;42.654;23.316;2022-09-03T08:31:20;94711.91;;;24.20;52.45
29197;BME280;62796;42.654;23.316;2022-09-03T08:33:47;94715.25;;;24.14;52.06
29197;BME280;62796;42.654;23.316;2022-09-03T08:36:20;94714.09;;;24.15;52.40
29197;BME280;62796;42.654;23.316;2022-09-03T08:38:47;94712.53;;;24.14;52.54
29197;BME280;62796;42.654;23.316;2022-09-03T08:46:11;94702.00;;;23.96;52.52
29197;BME280;62796;42.654;23.316;2022-09-03T08:48:37;94707.63;;;24.03;52.78
29197;BME280;62796;42.654;23.316;2022-09-03T08:51:04;94717.47;;;23.96;52.12
29197;BME280;62796;42.654;23.316;2022-09-03T08:53:46;94712.50;;;23.98;52.38
29197;BME280;62796;42.654;23.316;2022-09-03T08:56:23;94719.13;;;24.00;51.96
29197;BME280;62796;42.654;23.316;2022-09-03T08:58:49;94714.78;;;23.96;52.54
29197;BME280;62796;42.654;23.316;2022-09-03T09:01:39;94713.44;;;23.90;52.24
29197;BME280;62796;42.654;23.316;2022-09-03T09:07:23;94717.28;;;23.76;53.17
29197;BME280;62796;42.654;23.316;2022-09-03T09:10:32;94723.84;;;23.75;53.19
29197;BME280;62796;42.654;23.316;2022-09-03T09:13:36;94725.78;;;23.62;53.23
29197;BME280;62796;42.654;23.316;2022-09-03T09:16:02;94718.13;;;23.52;53.80
29197;BME280;62796;42.654;23.316;2022-09-03T09:21:17;94718.94;;;23.40;54.01
29197;BME280;62796;42.654;23.316;2022-09-03T09:23:48;94719.06;;;23.44;54.20
29197;BME280;62796;42.654;23.316;2022-09-03T09:26:18;94722.19;;;23.46;54.14
29197;BME280;62796;42.654;23.316;2022-09-03T09:28:48;94723.78;;;23.47;54.05
29197;BME280;62796;42.654;23.316;2022-09-03T09:31:18;94725.59;;;23.55;53.56
29197;BME280;62796;42.654;23.316;2022-09-03T09:33:44;94731.78;;;23.56;54.05
29197;BME280;62796;42.654;23.316;2022-09-03T09:36:13;94726.72;;;23.54;54.01
29197;BME280;62796;42.654;23.316;2022-09-03T09:38:41;94718.13;;;23.52;54.12
29197;BME280;62796;42.654;23.316;2022-09-03T09:43:33;94714.75;;;23.55;53.74
29197;BME280;62796;42.654;23.316;2022-09-03T09:46:15;94726.56;;;23.63;53.43
29197;BME280;62796;42.654;23.316;2022-09-03T09:48:50;94727.25;;;23.60;53.66
29197;BME280;62796;42.654;23.316;2022-09-03T09:51:37;94721.84;;;23.60;53.82
29197;BME280;62796;42.654;23.316;2022-09-03T09:54:03;94726.09;;;23.73;53.57
29197;BME280;62796;42.654;23.316;2022-09-03T09:59:07;94726.72;;;23.95;53.35
29197;BME280;62796;42.654;23.316;2022-09-03T10:01:36;94712.09;;;24.12;52.12
29197;BME280;62796;42.654;23.316;2022-09-03T10:06:41;94710.97;;;24.73;51.58
29197;BME280;62796;42.654;23.316;2022-09-03T10:09:28;94725.94;;;25.14;50.77
29197;BME280;62796;42.654;23.316;2022-09-03T10:12:06;94717.28;;;25.44;50.31
29197;BME280;62796;42.654;23.316;2022-09-03T10:23:24;94696.19;;;26.55;47.08
29197;BME280;62796;42.654;23.316;2022-09-03T10:26:06;94712.56;;;27.04;46.86
29197;BME280;62796;42.654;23.316;2022-09-03T10:28:36;94695.72;;;27.49;45.99
29197;BME280;62796;42.654;23.316;2022-09-03T10:33:46;94695.72;;;27.79;45.61
29197;BME280;62796;42.654;23.316;2022-09-03T10:36:22;94716.19;;;27.96;45.15
29197;BME280;62796;42.654;23.316;2022-09-03T10:39:24;94703.31;;;28.27;44.00
29197;BME280;62796;42.654;23.316;2022-09-03T10:44:53;94710.88;;;28.82;43.06
29197;BME280;62796;42.654;23.316;2022-09-03T10:52:31;94709.03;;;28.96;42.24
29197;BME280;62796;42.654;23.316;2022-09-03T10:58:28;94707.59;;;29.69;40.69
29197;BME280;62796;42.654;23.316;2022-09-03T11:01:03;94696.00;;;29.90;40.70
29197;BME280;62796;42.654;23.316;2022-09-03T11:03:44;94705.81;;;30.02;40.27
29197;BME280;62796;42.654;23.316;2022-09-03T11:06:22;94699.22;;;30.17;39.67
29197;BME280;62796;42.654;23.316;2022-09-03T11:08:57;94702.00;;;30.24;39.25
29197;BME280;62796;42.654;23.316;2022-09-03T11:11:35;94698.84;;;30.19;38.94
29197;BME280;62796;42.654;23.316;2022-09-03T11:14:09;94707.06;;;30.29;39.15
29197;BME280;62796;42.654;23.316;2022-09-03T11:16:42;94698.47;;;30.27;39.70
29197;BME280;62796;42.654;23.316;2022-09-03T11:19:12;94705.97;;;30.38;39.59
29197;BME280;62796;42.654;23.316;2022-09-03T11:21:41;94699.25;;;30.24;39.46
29197;BME280;62796;42.654;23.316;2022-09-03T11:24:22;94702.84;;;30.50;39.09
29197;BME280;62796;42.654;23.316;2022-09-03T11:27:25;94700.50;;;30.59;38.79
29197;BME280;62796;42.654;23.316;2022-09-03T11:32:57;94709.19;;;31.12;38.33
29197;BME280;62796;42.654;23.316;2022-09-03T11:40:38;94696.19;;;31.70;36.92
29197;BME280;62796;42.654;23.316;2022-09-03T11:43:28;94684.81;;;31.78;36.96
29197;BME280;62796;42.654;23.316;2022-09-03T11:48:45;94696.09;;;32.06;35.99
29197;BME280;62796;42.654;23.316;2022-09-03T11:51:34;94699.94;;;32.15;35.63
29197;BME280;62796;42.654;23.316;2022-09-03T11:56:48;94704.19;;;32.31;35.30
29197;BME280;62796;42.654;23.316;2022-09-03T11:59:24;94695.94;;;32.34;35.58
29197;BME280;62796;42.654;23.316;2022-09-03T12:04:51;94691.94;;;32.50;35.66
29197;BME280;62796;42.654;23.316;2022-09-03T12:07:28;94692.97;;;32.70;35.01
29197;BME280;62796;42.654;23.316;2022-09-03T12:18:33;94688.50;;;32.95;33.26
29197;BME280;62796;42.654;23.316;2022-09-03T12:21:03;94682.13;;;33.05;33.46
29197;BME280;62796;42.654;23.316;2022-09-03T12:23:50;94675.06;;;33.04;33.25
29197;BME280;62796;42.654;23.316;2022-09-03T12:28:46;94671.47;;;33.14;33.12
29197;BME280;62796;42.654;23.316;2022-09-03T12:31:17;94669.94;;;33.06;33.00
29197;BME280;62796;42.654;23.316;2022-09-03T12:36:16;94668.75;;;33.07;33.37
29197;BME280;62796;42.654;23.316;2022-09-03T12:38:42;94682.03;;;33.19;33.63
29197;BME280;62796;42.654;23.316;2022-09-03T12:41:28;94680.00;;;33.23;34.25
29197;BME280;62796;42.654;23.316;2022-09-03T12:43:57;94669.06;;;33.20;33.88
29197;BME280;62796;42.654;23.316;2022-09-03T12:46:27;94679.69;;;33.18;33.93
29197;BME280;62796;42.654;23.316;2022-09-03T12:48:57;94677.31;;;33.20;33.94
29197;BME280;62796;42.654;23.316;2022-09-03T12:51:31;94654.16;;;33.17;33.29
29197;BME280;62796;42.654;23.316;2022-09-03T12:53:57;94659.22;;;33.22;33.60
29197;BME280;62796;42.654;23.316;2022-09-03T12:56:24;94656.81;;;33.28;33.40
29197;BME280;62796;42.654;23.316;2022-09-03T12:59:03;94669.34;;;33.33;33.42
29197;BME280;62796;42.654;23.316;2022-09-03T13:01:38;94661.97;;;33.22;33.10
29197;BME280;62796;42.654;23.316;2022-09-03T13:04:10;94656.69;;;32.97;33.28
29197;BME280;62796;42.654;23.316;2022-09-03T13:06:56;94661.44;;;32.89;33.54
29197;BME280;62796;42.654;23.316;2022-09-03T13:09:25;94655.22;;;32.85;33.79
29197;BME280;62796;42.654;23.316;2022-09-03T13:11:56;94650.06;;;32.91;34.19
29197;BME280;62796;42.654;23.316;2022-09-03T13:14:24;94657.91;;;32.92;34.06
29197;BME280;62796;42.654;23.316;2022-09-03T13:20:10;94641.72;;;32.49;34.47
29197;BME280;62796;42.654;23.316;2022-09-03T13:28:32;94628.13;;;31.21;35.87
29197;BME280;62796;42.654;23.316;2022-09-03T13:33:42;94632.00;;;31.53;35.41
29197;BME280;62796;42.654;23.316;2022-09-03T13:36:15;94638.31;;;31.28;35.42
29197;BME280;62796;42.654;23.316;2022-09-03T13:44:10;94626.22;;;30.50;37.35
29197;BME280;62796;42.654;23.316;2022-09-03T13:46:42;94621.06;;;30.20;37.85
29197;BME280;62796;42.654;23.316;2022-09-03T13:49:19;94622.59;;;30.03;37.86
29197;BME280;62796;42.654;23.316;2022-09-03T13:52:09;94620.88;;;29.62;38.30
29197;BME280;62796;42.654;23.316;2022-09-03T13:54:41;94620.31;;;29.28;38.42
29197;BME280;62796;42.654;23.316;2022-09-03T13:57:33;94628.19;;;28.77;39.61
29197;BME280;62796;42.654;23.316;2022-09-03T14:00:09;94629.63;;;28.64;39.54
29197;BME280;62796;42.654;23.316;2022-09-03T14:05:33;94638.09;;;28.11;40.56
29197;BME280;62796;42.654;23.316;2022-09-03T14:08:07;94642.03;;;27.49;41.92
29197;BME280;62796;42.654;23.316;2022-09-03T14:19:08;94634.84;;;27.11;43.20
29197;BME280;62796;42.654;23.316;2022-09-03T14:22:04;94634.53;;;27.16;43.39
29197;BME280;62796;42.654;23.316;2022-09-03T14:27:02;94631.53;;;26.94;44.06
29197;BME280;62796;42.654;23.316;2022-09-03T14:29:31;94639.22;;;26.88;44.20
29197;BME280;62796;42.654;23.316;2022-09-03T14:45:51;94628.31;;;26.88;44.58
29197;BME280;62796;42.654;23.316;2022-09-03T14:50:57;94641.72;;;27.01;44.08
29197;BME280;62796;42.654;23.316;2022-09-03T14:53:50;94637.13;;;27.05;44.23
29197;BME280;62796;42.654;23.316;2022-09-03T14:56:47;94640.16;;;27.00;43.82
29197;BME280;62796;42.654;23.316;2022-09-03T15:12:57;94643.31;;;26.56;44.00
29197;BME280;62796;42.654;23.316;2022-09-03T15:20:48;94655.56;;;26.42;44.61
29197;BME280;62796;42.654;23.316;2022-09-03T15:34:18;94657.78;;;25.94;45.57
29197;BME280;62796;42.654;23.316;2022-09-03T15:36:54;94652.69;;;25.92;45.62
29197;BME280;62796;42.654;23.316;2022-09-03T15:39:29;94645.47;;;25.81;45.47
29197;BME280;62796;42.654;23.316;2022-09-03T15:42:05;94651.63;;;25.77;45.79
29197;BME280;62796;42.654;23.316;2022-09-03T15:44:41;94658.22;;;25.76;45.38
29197;BME280;62796;42.654;23.316;2022-09-03T15:47:13;94653.50;;;25.54;45.29
29197;BME280;62796;42.654;23.316;2022-09-03T15:50:09;94672.34;;;25.47;45.67
29197;BME280;62796;42.654;23.316;2022-09-03T15:52:58;94673.06;;;25.44;45.97
29197;BME280;62796;42.654;23.316;2022-09-03T15:55:37;94661.03;;;25.25;46.55
29197;BME280;62796;42.654;23.316;2022-09-03T16:04:00;94663.63;;;25.37;46.64
29197;BME280;62796;42.654;23.316;2022-09-03T16:06:34;94658.13;;;25.34;46.30
29197;BME280;62796;42.654;23.316;2022-09-03T16:12:24;94674.41;;;25.34;45.91
29197;BME280;62796;42.654;23.316;2022-09-03T16:15:21;94681.59;;;25.26;46.19
29197;BME280;62796;42.654;23.316;2022-09-03T16:18:46;94684.97;;;25.23;46.27
29197;BME280;62796;42.654;23.316;2022-09-03T16:21:03;94687.28;;;25.21;46.26
29197;BME280;62796;42.654;23.316;2022-09-03T16:26:26;94678.91;;;24.94;46.92
29197;BME280;62796;42.654;23.316;2022-09-03T16:28:59;94690.47;;;24.91;46.63
29197;BME280;62796;42.654;23.316;2022-09-03T16:34:04;94704.03;;;24.75;46.74
29197;BME280;62796;42.654;23.316;2022-09-03T16:47:50;94718.88;;;24.50;48.25
29197;BME280;62796;42.654;23.316;2022-09-03T17:02:20;94726.31;;;24.37;54.29
29197;BME280;62796;42.654;23.316;2022-09-03T17:07:39;94737.59;;;24.39;54.71
29197;BME280;62796;42.654;23.316;2022-09-03T17:12:49;94740.91;;;24.32;54.19
29197;BME280;62796;42.654;23.316;2022-09-03T17:25:36;94760.72;;;23.92;54.73
29197;BME280;62796;42.654;23.316;2022-09-03T17:41:50;94787.19;;;23.46;56.23
29197;BME280;62796;42.654;23.316;2022-09-03T17:50:25;94798.50;;;23.36;56.42
29197;BME280;62796;42.654;23.316;2022-09-03T17:56:06;94805.91;;;23.39;56.41